Grays Creek Airport

2GC · 北卡罗来纳州, 美国

罗盘
风向 的 风向 210° Grays Creek Airport 17/35
风: 4 kt, 2 beaufort

3 kt

3 kt
改变
0 ft 1.000 2.000 3.000 4.000 5.000
Cloud Cloud Cloud Cloud Cloud Cloud Cloud Cloud
OVC 400
METAR KFAY 201053Z 21004KT 10SM OVC004 22/22 A3009 RMK AO2 SLP184 T02220217

METAR Grays Creek Airport - 2GC

Grays Creek Airport是,美国中的小机场。 该机场位于纬度34,89369和经度-78,84353。 该机场有一条跑道: 17/35. 该机场的伪ICAO代码为K2GC。 该机场的本地机场标识(FAA LID)为2GC。 机场在Washington FIR中。

该航空气象观测是针对Fayetteville Regional/Grannis Field在2024年7月20日 06:53, 当地时间进行的。

机场观察

风向为210°,速度为4 kt。

可见度为10 mi。

有乌云密布在400 ft的高度。 破损或更高的上限为400 ft。

温度和风寒是22 °C。 露点为22 °C,相对湿度为100%。 海平面上的气压为30,09 inHg (QNH)。

白天

今天,太阳从06:16升起,在20:26降落。 这适用于Grays Creek Airport,世界夏令时可能有所不同。 当地时间与世界标准时间之间的时差为-4 小时。 夏令时目前正在进行中。

公司介绍

我们没有关于这个机场的公司信息。

体会

到Vliegles.nl去找飞行课程,跳伞和其他飞行体验。 浏览页面,了解Grays Creek Airport附近所有可用的活动。 你也可以使用搜索功能来寻找你所在地附近的特定飞行课程、跳伞或其他飞行体验。

跑道

Id 标题 侧风 逆风 侧风 %
17/35 170°-350° 3 kt 3 kt 64 %

逆风成分最大的方向会被突出显示,并用于横风计算。 这并不一定意味着这个方向在使用。

乌云

400 ft OVC 乌云密布

温度 & 天气

温度 22,2 °C
露点 21,7 °C
相对湿度 100%
Kp-index 1 (0-9)

评论

AO2自动气象站,可确定降水类型
SLP184海平面压力为30,07 inHg (30,07 inHg)
T02220217温度为22,2 °C (72,0 °F),露点为21,7 °C (71,1 °F)

白天

日出
06:16
中午
13:21
日落
20:27 (13:12)

小工具

你想在你的网站上有一个关于Grays Creek Airport的当前航空天气(METAR)的小部件吗?

显示HTML代码
报告变更